Time;durP1;ratioP1;P1;durP2;ratioP2;P2;SDS_P1;SDS_P2;PMS_P1;PMS_P2;Temp;Humidity;BMP_temperature;BMP_pressure;BME280_temperature;BME280_humidity;BME280_pressure;Samples;Min_cycle;Max_cycle;Signal;HPM_P1;HPM_P2
2022/02/19 00:00:54;;;;;;;8.98;1.40;;;4.20;99.90;;;;;;5001471;28;20409;-60
2022/02/19 00:03:21;;;;;;;9.40;1.70;;;4.20;99.90;;;;;;5003968;28;20046;-60
2022/02/19 00:05:48;;;;;;;5.05;1.58;;;4.20;99.90;;;;;;5001666;28;20120;-60
2022/02/19 00:08:14;;;;;;;6.38;1.48;;;4.30;99.90;;;;;;4983679;28;20092;-61
2022/02/19 00:10:42;;;;;;;4.60;1.83;;;4.20;99.90;;;;;;4991078;28;20142;-60
2022/02/19 00:13:09;;;;;;;3.78;1.30;;;4.20;99.90;;;;;;5003299;28;20765;-60
2022/02/19 00:15:36;;;;;;;4.63;1.67;;;4.20;99.90;;;;;;4999975;28;20251;-60
2022/02/19 00:18:03;;;;;;;3.45;1.13;;;4.20;99.90;;;;;;5021836;28;20581;-61
2022/02/19 00:20:32;;;;;;;4.78;1.40;;;4.20;99.90;;;;;;5020031;28;20481;-60
2022/02/19 00:22:59;;;;;;;5.85;1.48;;;4.20;99.90;;;;;;4988992;28;20081;-60
2022/02/19 00:25:26;;;;;;;5.53;1.50;;;4.20;99.90;;;;;;4998731;28;20104;-60
2022/02/19 00:27:53;;;;;;;7.35;1.45;;;4.20;99.90;;;;;;5002464;28;20505;-60
2022/02/19 00:30:20;;;;;;;6.25;1.60;;;4.20;99.90;;;;;;4996543;28;20109;-61
2022/02/19 00:32:48;;;;;;;6.70;1.58;;;4.20;99.90;;;;;;5004911;28;20058;-60
2022/02/19 00:35:15;;;;;;;4.07;1.40;;;4.20;99.90;;;;;;5012168;28;20053;-60
2022/02/19 00:37:42;;;;;;;7.28;1.83;;;4.20;99.90;;;;;;4988266;28;20787;-60
2022/02/19 00:40:10;;;;;;;5.13;1.40;;;4.20;99.90;;;;;;5002211;28;20157;-60
2022/02/19 00:42:36;;;;;;;4.50;1.05;;;4.20;99.90;;;;;;5002090;28;20115;-60
2022/02/19 00:45:03;;;;;;;4.13;1.42;;;4.20;99.90;;;;;;5000644;28;20077;-60
2022/02/19 00:47:30;;;;;;;3.50;1.40;;;4.20;99.90;;;;;;5000303;28;20088;-60
2022/02/19 00:49:57;;;;;;;5.13;1.88;;;4.20;99.90;;;;;;5002709;28;20500;-60
2022/02/19 00:52:23;;;;;;;5.57;2.10;;;4.20;99.90;;;;;;5002754;28;20081;-60
2022/02/19 00:54:51;;;;;;;5.80;1.70;;;4.20;99.90;;;;;;5002080;28;20077;-60
2022/02/19 00:57:17;;;;;;;7.53;2.10;;;4.20;99.90;;;;;;5000329;28;20132;-60
2022/02/19 00:59:44;;;;;;;6.00;1.70;;;4.20;99.90;;;;;;4996634;28;20133;-60
2022/02/19 01:02:11;;;;;;;6.88;1.85;;;4.20;99.90;;;;;;4983362;28;20126;-60
2022/02/19 01:04:38;;;;;;;3.00;1.20;;;4.20;99.90;;;;;;4990795;28;20585;-60
2022/02/19 01:07:04;;;;;;;4.90;1.30;;;4.20;99.90;;;;;;5002424;28;20130;-60
2022/02/19 01:09:31;;;;;;;6.30;1.58;;;4.20;99.90;;;;;;4981990;28;20455;-60
2022/02/19 01:11:58;;;;;;;5.57;1.27;;;4.20;99.90;;;;;;4982584;28;20145;-59
2022/02/19 01:14:25;;;;;;;5.65;1.38;;;4.20;99.90;;;;;;4987350;28;20069;-60
2022/02/19 01:16:52;;;;;;;5.40;1.58;;;4.30;99.90;;;;;;5001918;28;20093;-60
2022/02/19 01:19:18;;;;;;;6.22;1.60;;;4.30;99.90;;;;;;5000617;28;20121;-60
2022/02/19 01:21:45;;;;;;;4.32;1.40;;;4.30;99.90;;;;;;4985636;28;20494;-61
2022/02/19 01:24:12;;;;;;;6.32;1.60;;;4.30;99.90;;;;;;4985519;28;20070;-60
2022/02/19 01:26:38;;;;;;;6.05;1.60;;;4.30;99.90;;;;;;5001529;28;20053;-60
2022/02/19 01:29:05;;;;;;;3.22;1.05;;;4.30;99.90;;;;;;5000746;28;20157;-60
2022/02/19 01:31:32;;;;;;;1.80;0.93;;;4.30;99.90;;;;;;5002538;28;20137;-59
2022/02/19 01:33:59;;;;;;;11.13;1.70;;;4.30;99.90;;;;;;4998341;28;21010;-60
2022/02/19 01:36:26;;;;;;;3.38;1.33;;;4.30;99.90;;;;;;5002073;28;20124;-60
2022/02/19 01:38:52;;;;;;;4.32;0.90;;;4.30;99.90;;;;;;5000683;28;20594;-60
2022/02/19 01:41:19;;;;;;;5.18;1.30;;;4.30;99.90;;;;;;5001537;28;20076;-60
2022/02/19 01:43:46;;;;;;;6.78;1.60;;;4.30;99.90;;;;;;5000227;28;20609;-60
2022/02/19 01:46:13;;;;;;;6.68;1.75;;;4.30;99.90;;;;;;5016996;28;20486;-60
2022/02/19 01:48:40;;;;;;;11.35;1.83;;;4.30;99.90;;;;;;5004618;28;20089;-59
2022/02/19 01:51:07;;;;;;;5.85;1.33;;;4.40;99.90;;;;;;5010956;28;20129;-60
2022/02/19 01:53:33;;;;;;;5.55;1.38;;;4.30;99.90;;;;;;4989654;28;20053;-59
2022/02/19 01:56:00;;;;;;;5.28;1.30;;;4.30;99.90;;;;;;5000216;28;20255;-60
2022/02/19 01:58:27;;;;;;;3.75;1.20;;;4.30;99.90;;;;;;5000975;28;20127;-60
2022/02/19 02:00:54;;;;;;;4.75;1.40;;;4.30;99.90;;;;;;5000779;28;20133;-60
2022/02/19 02:03:20;;;;;;;5.20;2.10;;;4.30;99.90;;;;;;4990574;28;20395;-60
2022/02/19 02:05:47;;;;;;;6.80;1.60;;;4.30;99.90;;;;;;4997192;28;20092;-59
2022/02/19 02:08:14;;;;;;;7.70;2.17;;;4.20;99.90;;;;;;4999553;28;20137;-60
2022/02/19 02:10:41;;;;;;;5.57;1.48;;;4.20;99.90;;;;;;5000395;28;20503;-60
2022/02/19 02:13:08;;;;;;;7.85;1.60;;;4.20;99.90;;;;;;5008725;28;20103;-61
2022/02/19 02:15:34;;;;;;;7.47;1.60;;;4.20;99.90;;;;;;5003758;28;20109;-60
2022/02/19 02:18:01;;;;;;;5.82;1.38;;;4.20;99.90;;;;;;5000843;28;20077;-60
2022/02/19 02:20:28;;;;;;;5.85;1.40;;;4.10;99.90;;;;;;5000941;28;20109;-60
2022/02/19 02:22:56;;;;;;;10.07;2.28;;;4.20;99.90;;;;;;5001092;28;20212;-60
2022/02/19 02:25:28;;;;;;;4.85;1.20;;;4.20;99.90;;;;;;4999031;28;20482;-59
2022/02/19 02:27:55;;;;;;;3.03;1.25;;;4.10;99.90;;;;;;5015018;28;20141;-60
2022/02/19 02:30:27;;;;;;;5.38;1.80;;;4.10;99.90;;;;;;5005449;28;20762;-60
2022/02/19 02:32:53;;;;;;;6.38;1.60;;;4.10;99.90;;;;;;4995126;28;20141;-60
2022/02/19 02:35:20;;;;;;;5.75;1.63;;;4.10;99.90;;;;;;4995659;28;20619;-60
2022/02/19 02:37:47;;;;;;;5.18;1.42;;;4.00;99.90;;;;;;5002802;28;20081;-60
2022/02/19 02:40:14;;;;;;;5.03;1.58;;;4.00;99.90;;;;;;5006246;28;20108;-60
2022/02/19 02:42:41;;;;;;;8.18;2.13;;;4.00;99.90;;;;;;5006866;28;20085;-60
2022/02/19 02:45:08;;;;;;;4.75;1.30;;;4.00;99.90;;;;;;5004484;28;20227;-60
2022/02/19 02:47:55;;;;;;;8.73;2.00;;;4.00;99.90;;;;;;5006131;28;20042;-60
2022/02/19 02:50:22;;;;;;;5.65;1.83;;;4.00;99.90;;;;;;5009234;28;20081;-60
2022/02/19 02:52:49;;;;;;;4.15;1.65;;;4.00;99.90;;;;;;5019992;28;20128;-60
2022/02/19 02:55:16;;;;;;;6.00;1.70;;;4.00;99.90;;;;;;5006434;28;20129;-60
2022/02/19 02:57:42;;;;;;;3.67;1.20;;;4.00;99.90;;;;;;4988117;28;20096;-60
2022/02/19 03:00:15;;;;;;;7.57;2.22;;;4.00;99.90;;;;;;4985518;28;20153;-60
2022/02/19 03:02:42;;;;;;;6.65;1.52;;;4.00;99.90;;;;;;4991652;28;20557;-60
2022/02/19 03:05:10;;;;;;;5.75;1.60;;;4.00;99.90;;;;;;5005788;28;20545;-60
2022/02/19 03:07:37;;;;;;;4.63;1.25;;;4.00;99.90;;;;;;5004902;28;20501;-60
2022/02/19 03:10:04;;;;;;;4.22;1.35;;;4.00;99.90;;;;;;5000998;28;20100;-61
2022/02/19 03:12:31;;;;;;;7.95;1.65;;;4.00;99.90;;;;;;4989550;28;20585;-60
2022/02/19 03:14:58;;;;;;;6.43;1.35;;;4.00;99.90;;;;;;5004662;28;20045;-60
2022/02/19 03:17:25;;;;;;;5.78;1.42;;;4.00;99.90;;;;;;5004457;28;20085;-60
2022/02/19 03:19:51;;;;;;;6.53;2.05;;;4.00;99.90;;;;;;4999571;28;20103;-60
2022/02/19 03:22:18;;;;;;;2.58;0.98;;;4.00;99.90;;;;;;4987156;28;20073;-60
2022/02/19 03:24:45;;;;;;;4.20;1.45;;;4.00;99.90;;;;;;5005954;28;20782;-61
2022/02/19 03:27:12;;;;;;;5.85;1.30;;;4.00;99.90;;;;;;5006338;28;20069;-60
2022/02/19 03:29:39;;;;;;;5.53;1.40;;;4.00;99.90;;;;;;5003973;28;20125;-60
2022/02/19 03:32:06;;;;;;;8.40;2.30;;;4.00;99.90;;;;;;5006414;28;20141;-60
2022/02/19 03:34:33;;;;;;;5.53;1.48;;;4.00;99.90;;;;;;5004239;28;20149;-60
2022/02/19 03:37:00;;;;;;;6.00;1.52;;;4.00;99.90;;;;;;5006091;28;20141;-60
2022/02/19 03:39:27;;;;;;;2.97;1.02;;;4.00;99.90;;;;;;5005086;28;20129;-60
2022/02/19 03:41:53;;;;;;;6.32;1.27;;;4.00;99.90;;;;;;5005372;28;20377;-60
2022/02/19 03:44:20;;;;;;;4.90;1.33;;;3.90;99.90;;;;;;5003938;28;20065;-60
2022/02/19 03:46:47;;;;;;;3.58;1.25;;;3.90;99.90;;;;;;5005720;28;20049;-59
2022/02/19 03:49:14;;;;;;;4.07;1.27;;;3.90;99.90;;;;;;5004120;28;20140;-60
2022/02/19 03:51:40;;;;;;;3.58;0.98;;;3.80;99.90;;;;;;5004436;28;20141;-60
2022/02/19 03:54:07;;;;;;;3.80;0.98;;;3.80;99.90;;;;;;5004285;28;20085;-60
2022/02/19 03:56:34;;;;;;;4.07;1.00;;;3.80;99.90;;;;;;5004742;28;20125;-60
2022/02/19 03:59:00;;;;;;;3.67;1.23;;;3.80;99.90;;;;;;5003323;28;20586;-60
2022/02/19 04:01:27;;;;;;;5.15;1.40;;;3.80;99.90;;;;;;5003818;28;20111;-60
2022/02/19 04:03:54;;;;;;;4.18;1.38;;;3.70;99.90;;;;;;5005014;28;20140;-60
2022/02/19 04:06:21;;;;;;;2.22;0.75;;;3.80;99.90;;;;;;5005482;28;20085;-60
2022/02/19 04:08:47;;;;;;;5.32;1.10;;;3.80;99.90;;;;;;5004300;28;20109;-60
2022/02/19 04:11:14;;;;;;;6.15;1.40;;;3.80;99.90;;;;;;5004199;28;20050;-60
2022/02/19 04:13:41;;;;;;;6.72;1.35;;;3.70;99.90;;;;;;5003612;28;20058;-60
2022/02/19 04:16:07;;;;;;;3.10;1.25;;;3.70;99.90;;;;;;5005180;28;20092;-60
2022/02/19 04:18:34;;;;;;;4.28;1.00;;;3.70;99.90;;;;;;5004174;28;20140;-60
2022/02/19 04:21:01;;;;;;;6.53;1.20;;;3.70;99.90;;;;;;5004872;28;20038;-60
2022/02/19 04:23:28;;;;;;;2.13;0.98;;;3.70;99.90;;;;;;5004277;28;20126;-60
2022/02/19 04:25:55;;;;;;;2.88;0.90;;;3.60;99.90;;;;;;5003774;28;20494;-60
2022/02/19 04:28:21;;;;;;;2.78;1.08;;;3.60;99.90;;;;;;5004213;28;20113;-60
2022/02/19 04:30:48;;;;;;;3.55;0.98;;;3.60;99.90;;;;;;5003651;28;20076;-60
2022/02/19 04:33:15;;;;;;;4.68;1.25;;;3.60;99.90;;;;;;5004691;28;20085;-60
2022/02/19 04:35:42;;;;;;;3.97;0.90;;;3.60;99.90;;;;;;5004512;28;20147;-60
2022/02/19 04:38:08;;;;;;;5.85;1.30;;;3.60;99.90;;;;;;5004011;28;20097;-60
2022/02/19 04:40:35;;;;;;;5.47;1.52;;;3.60;99.90;;;;;;5002994;28;20525;-60
2022/02/19 04:43:02;;;;;;;3.78;1.40;;;3.60;99.90;;;;;;5001450;28;20812;-60
2022/02/19 04:45:29;;;;;;;5.55;1.25;;;3.60;99.90;;;;;;5003053;28;20502;-60
2022/02/19 04:47:56;;;;;;;5.65;1.00;;;3.50;99.90;;;;;;5004733;28;20132;-60
2022/02/19 04:50:23;;;;;;;3.88;1.30;;;3.60;99.90;;;;;;5003875;28;20375;-60
2022/02/19 04:52:49;;;;;;;5.80;0.93;;;3.50;99.90;;;;;;5004076;28;20132;-59
2022/02/19 04:55:16;;;;;;;4.70;1.38;;;3.50;99.90;;;;;;5003973;28;20123;-60
2022/02/19 04:57:44;;;;;;;7.55;1.60;;;3.60;99.90;;;;;;5003880;28;20085;-60
2022/02/19 05:00:18;;;;;;;6.13;1.42;;;3.60;99.90;;;;;;5001883;28;20050;-60
2022/02/19 05:02:45;;;;;;;5.88;1.70;;;3.60;99.90;;;;;;5003131;28;20145;-59
2022/02/19 05:05:12;;;;;;;4.22;1.35;;;3.60;99.90;;;;;;5003748;28;20085;-60
2022/02/19 05:07:38;;;;;;;4.65;1.33;;;3.60;99.90;;;;;;5003370;28;20133;-60
2022/02/19 05:10:05;;;;;;;8.48;1.58;;;3.60;99.90;;;;;;5002672;28;20093;-61
2022/02/19 05:12:32;;;;;;;4.15;1.35;;;3.60;99.90;;;;;;4985659;28;20140;-60
2022/02/19 05:14:59;;;;;;;3.88;1.08;;;3.60;99.90;;;;;;5002366;28;20132;-60
2022/02/19 05:17:26;;;;;;;5.07;2.17;;;3.50;99.90;;;;;;5003594;28;20085;-60
2022/02/19 05:19:52;;;;;;;3.67;1.00;;;3.50;99.90;;;;;;5003474;28;20437;-60
2022/02/19 05:22:19;;;;;;;2.83;1.08;;;3.50;99.90;;;;;;5003359;28;20085;-60
2022/02/19 05:24:46;;;;;;;5.20;1.27;;;3.50;99.90;;;;;;5003432;28;20081;-60
2022/02/19 05:27:13;;;;;;;5.15;1.33;;;3.50;99.90;;;;;;5003508;28;20115;-60
2022/02/19 05:29:40;;;;;;;2.45;0.80;;;3.50;99.90;;;;;;4986323;28;20216;-60
2022/02/19 05:32:07;;;;;;;4.32;0.98;;;3.40;99.90;;;;;;4984319;28;20129;-61
2022/02/19 05:34:34;;;;;;;3.95;1.20;;;3.40;99.90;;;;;;5001397;28;20100;-59
2022/02/19 05:37:01;;;;;;;3.97;1.25;;;3.40;99.90;;;;;;5002602;28;20412;-60
2022/02/19 05:39:27;;;;;;;8.63;1.35;;;3.40;99.90;;;;;;5002326;28;20152;-60
2022/02/19 05:41:54;;;;;;;5.38;1.13;;;3.40;99.90;;;;;;5002943;28;20048;-60
2022/02/19 05:44:21;;;;;;;3.58;1.00;;;3.40;99.90;;;;;;5001623;28;20117;-60
2022/02/19 05:46:48;;;;;;;3.33;1.23;;;3.40;99.90;;;;;;5001705;28;20499;-60
2022/02/19 05:49:14;;;;;;;6.15;1.20;;;3.40;99.90;;;;;;5001631;28;20116;-60
2022/02/19 05:51:41;;;;;;;3.95;1.27;;;3.40;99.90;;;;;;5003680;28;20139;-60
2022/02/19 05:54:08;;;;;;;6.95;1.48;;;3.30;99.90;;;;;;5002413;28;20136;-59
2022/02/19 05:56:35;;;;;;;5.57;1.25;;;3.40;99.90;;;;;;5003083;28;20122;-60
2022/02/19 05:59:01;;;;;;;4.22;1.00;;;3.40;99.90;;;;;;4994882;28;20525;-60
2022/02/19 06:01:28;;;;;;;4.07;1.92;;;3.40;99.90;;;;;;5003307;28;20092;-60
2022/02/19 06:03:55;;;;;;;3.55;1.25;;;3.40;99.90;;;;;;4999607;28;20144;-60
2022/02/19 06:06:22;;;;;;;4.60;1.35;;;3.40;99.90;;;;;;5001375;28;20605;-60
2022/02/19 06:08:48;;;;;;;3.80;1.42;;;3.40;99.90;;;;;;4999764;28;20116;-60
2022/02/19 06:11:15;;;;;;;2.83;1.20;;;3.40;99.90;;;;;;5001581;28;20124;-60
2022/02/19 06:13:42;;;;;;;4.70;1.60;;;3.40;99.90;;;;;;4997894;28;20060;-60
2022/02/19 06:16:09;;;;;;;4.22;1.17;;;3.40;99.90;;;;;;5000635;28;20128;-61
2022/02/19 06:18:35;;;;;;;4.28;1.58;;;3.40;99.90;;;;;;5001302;28;20156;-60
2022/02/19 06:21:02;;;;;;;3.78;1.10;;;3.40;99.90;;;;;;5001340;28;20081;-60
2022/02/19 06:23:29;;;;;;;5.57;0.70;;;3.40;99.90;;;;;;5000685;28;20093;-60
2022/02/19 06:25:56;;;;;;;5.38;1.02;;;3.30;99.90;;;;;;4997682;28;20211;-60
2022/02/19 06:28:22;;;;;;;2.45;0.80;;;3.30;99.90;;;;;;4998745;28;20157;-61
2022/02/19 06:30:49;;;;;;;5.70;1.17;;;3.30;99.90;;;;;;4998014;28;20082;-59
2022/02/19 06:33:16;;;;;;;2.53;0.90;;;3.30;99.90;;;;;;4996803;28;20245;-60
2022/02/19 06:35:43;;;;;;;4.10;1.23;;;3.30;99.90;;;;;;4998434;28;20151;-60
2022/02/19 06:38:09;;;;;;;2.88;0.90;;;3.30;99.90;;;;;;4997056;28;20054;-60
2022/02/19 06:40:36;;;;;;;5.13;1.17;;;3.30;99.90;;;;;;4978768;28;20109;-60
2022/02/19 06:43:03;;;;;;;5.25;0.85;;;3.30;99.90;;;;;;4992806;28;20100;-59
2022/02/19 06:45:29;;;;;;;4.90;0.90;;;3.30;99.90;;;;;;4999389;28;20068;-60
2022/02/19 06:47:56;;;;;;;2.50;0.82;;;3.20;99.90;;;;;;5004699;28;20665;-60
2022/02/19 06:50:23;;;;;;;2.97;0.70;;;3.20;99.90;;;;;;5000596;28;20064;-60
2022/02/19 06:52:51;;;;;;;3.85;1.73;;;3.20;99.90;;;;;;4990887;28;20911;-60
2022/02/19 06:55:17;;;;;;;6.55;1.83;;;3.10;99.90;;;;;;4986197;28;20053;-59
2022/02/19 06:57:47;;;;;;;4.75;0.93;;;3.10;99.90;;;;;;4990272;28;20133;-60
2022/02/19 07:00:15;;;;;;;5.30;1.00;;;3.10;99.90;;;;;;4973291;28;20723;-60
2022/02/19 07:02:42;;;;;;;1.90;1.02;;;3.10;99.90;;;;;;4976090;28;20130;-60
2022/02/19 07:05:09;;;;;;;4.00;1.00;;;3.10;99.90;;;;;;4991258;28;20856;-60
2022/02/19 07:07:36;;;;;;;4.30;1.35;;;3.10;99.90;;;;;;4992246;28;20077;-59
2022/02/19 07:10:04;;;;;;;2.00;0.90;;;3.10;99.90;;;;;;4984595;28;20065;-60
2022/02/19 07:12:30;;;;;;;3.47;0.90;;;3.10;99.90;;;;;;4984336;28;20445;-60
2022/02/19 07:14:57;;;;;;;1.25;0.50;;;3.10;99.90;;;;;;4987768;28;20042;-60
2022/02/19 07:17:24;;;;;;;4.10;0.80;;;3.10;99.90;;;;;;4985277;28;20146;-59
2022/02/19 07:19:51;;;;;;;1.35;0.75;;;3.10;99.90;;;;;;4989141;28;20133;-60
2022/02/19 07:22:17;;;;;;;2.75;0.82;;;3.10;99.90;;;;;;4987014;28;20298;-60
2022/02/19 07:24:44;;;;;;;1.67;0.60;;;3.10;99.90;;;;;;4993107;28;20241;-59
2022/02/19 07:27:11;;;;;;;5.82;0.80;;;3.10;99.90;;;;;;4986415;28;20065;-60
2022/02/19 07:29:38;;;;;;;2.33;1.08;;;3.10;99.90;;;;;;4980635;28;20113;-59
2022/02/19 07:32:05;;;;;;;5.10;1.02;;;3.10;99.90;;;;;;4980024;28;20140;-60
2022/02/19 07:34:32;;;;;;;3.05;0.82;;;3.20;99.90;;;;;;4991163;28;20137;-60
2022/02/19 07:36:58;;;;;;;4.22;0.90;;;3.20;99.90;;;;;;4998494;28;20137;-60
2022/02/19 07:39:25;;;;;;;3.55;0.82;;;3.20;99.90;;;;;;4997649;28;20058;-60
2022/02/19 07:41:52;;;;;;;2.88;0.70;;;3.20;99.90;;;;;;4998425;28;20133;-60
2022/02/19 07:44:19;;;;;;;4.15;0.85;;;3.30;99.90;;;;;;4996414;28;20057;-61
2022/02/19 07:46:46;;;;;;;3.15;0.90;;;3.30;99.90;;;;;;4986227;28;20065;-60
2022/02/19 08:00:15;;;;;;;2.58;0.93;;;3.30;99.90;;;;;;4986644;28;20177;-60
2022/02/19 08:02:42;;;;;;;5.28;0.90;;;3.20;99.90;;;;;;4989026;28;20086;-60
2022/02/19 08:05:08;;;;;;;2.58;0.63;;;3.30;99.90;;;;;;4993570;28;20092;-60
2022/02/19 08:07:35;;;;;;;2.00;0.80;;;3.30;99.90;;;;;;4982906;28;20133;-60
2022/02/19 08:10:03;;;;;;;2.80;1.00;;;3.30;99.90;;;;;;4987156;28;20080;-60
2022/02/19 08:12:30;;;;;;;1.80;0.68;;;3.40;99.90;;;;;;4991591;28;20141;-60
2022/02/19 08:14:56;;;;;;;2.25;0.70;;;3.40;99.90;;;;;;4994729;28;20097;-60
2022/02/19 08:17:24;;;;;;;2.83;0.88;;;3.50;99.90;;;;;;4994394;28;20122;-59
2022/02/19 08:19:51;;;;;;;3.50;1.42;;;3.50;99.90;;;;;;4997752;28;20161;-59
2022/02/19 08:22:18;;;;;;;3.40;1.15;;;3.60;99.90;;;;;;4991444;28;20154;-60
2022/02/19 08:24:44;;;;;;;2.70;1.02;;;3.60;99.90;;;;;;4995023;28;20358;-60
2022/02/19 08:27:12;;;;;;;3.38;0.90;;;3.70;99.90;;;;;;4992211;28;20062;-59
2022/02/19 08:29:38;;;;;;;5.22;1.20;;;3.80;99.90;;;;;;4995815;28;20609;-59
2022/02/19 08:32:06;;;;;;;3.20;1.20;;;3.90;99.90;;;;;;4995591;28;20054;-60
2022/02/19 08:34:32;;;;;;;4.30;1.40;;;4.00;99.90;;;;;;4995726;28;20144;-61
2022/02/19 08:36:59;;;;;;;6.18;1.05;;;4.10;99.90;;;;;;5009745;28;20934;-61
2022/02/19 08:39:26;;;;;;;4.03;1.10;;;4.20;99.90;;;;;;4994177;28;20149;-60
2022/02/19 08:41:52;;;;;;;10.38;2.50;;;4.30;99.90;;;;;;4981043;28;20339;-59
2022/02/19 08:44:19;;;;;;;3.13;1.02;;;4.40;99.90;;;;;;4996334;28;20056;-60
2022/02/19 08:46:46;;;;;;;3.97;1.20;;;4.40;99.90;;;;;;4992918;28;20183;-60
2022/02/19 08:49:13;;;;;;;4.70;1.48;;;4.50;99.90;;;;;;4985444;28;20142;-60
2022/02/19 08:51:39;;;;;;;4.10;1.38;;;4.60;99.90;;;;;;4991846;28;20244;-60
2022/02/19 08:54:07;;;;;;;4.68;1.10;;;4.60;99.90;;;;;;4997301;28;20145;-60
2022/02/19 08:56:33;;;;;;;4.28;1.00;;;4.70;99.90;;;;;;4995949;28;20042;-60
2022/02/19 08:59:00;;;;;;;4.60;0.93;;;4.80;99.90;;;;;;4994601;28;20220;-60
2022/02/19 09:01:28;;;;;;;6.07;1.30;;;4.80;99.90;;;;;;4998171;28;20073;-61
2022/02/19 09:03:55;;;;;;;3.97;1.50;;;4.90;99.90;;;;;;4998981;28;20133;-60
2022/02/19 09:06:22;;;;;;;5.90;1.42;;;5.00;99.90;;;;;;5007836;28;20496;-60
2022/02/19 09:08:49;;;;;;;5.32;1.30;;;5.20;99.90;;;;;;4995261;28;20157;-61
2022/02/19 09:11:16;;;;;;;4.65;1.33;;;5.30;99.90;;;;;;4992325;28;20054;-60
2022/02/19 09:13:43;;;;;;;4.95;1.23;;;5.50;99.90;;;;;;4988554;28;20700;-60
2022/02/19 09:16:09;;;;;;;4.47;1.50;;;5.60;99.90;;;;;;4987475;28;20129;-60
2022/02/19 09:18:36;;;;;;;3.47;1.20;;;5.70;99.90;;;;;;4993825;28;20532;-60
2022/02/19 09:21:03;;;;;;;3.70;1.45;;;5.80;99.90;;;;;;5012484;28;20140;-60
2022/02/19 09:23:30;;;;;;;3.35;1.20;;;5.90;99.90;;;;;;5002239;28;20168;-60
2022/02/19 09:25:57;;;;;;;4.25;1.38;;;6.10;99.90;;;;;;4992147;28;20124;-61
2022/02/19 09:28:24;;;;;;;4.70;1.27;;;6.20;99.90;;;;;;4982160;28;20764;-59
2022/02/19 09:30:52;;;;;;;4.20;1.55;;;6.20;99.90;;;;;;4984637;28;20145;-60
2022/02/19 09:33:18;;;;;;;5.68;1.33;;;6.20;99.90;;;;;;4987742;28;20146;-60
2022/02/19 09:35:45;;;;;;;6.10;1.90;;;6.30;99.90;;;;;;4981379;28;20379;-60
2022/02/19 09:38:12;;;;;;;5.05;1.75;;;6.40;99.90;;;;;;4986519;28;20061;-60
2022/02/19 09:40:40;;;;;;;9.52;1.35;;;6.40;99.90;;;;;;4992592;28;20050;-60
2022/02/19 09:43:07;;;;;;;3.88;1.30;;;6.50;99.90;;;;;;4994182;28;20061;-60
2022/02/19 09:45:34;;;;;;;4.68;1.80;;;6.50;99.90;;;;;;4987010;28;20145;-60
2022/02/19 09:48:01;;;;;;;3.03;1.20;;;6.60;99.90;;;;;;4993364;28;20104;-60
2022/02/19 09:50:28;;;;;;;5.10;1.85;;;6.60;99.90;;;;;;4987752;28;20090;-60
2022/02/19 09:52:55;;;;;;;4.22;1.50;;;6.70;99.90;;;;;;4987489;28;20053;-61
2022/02/19 09:55:22;;;;;;;4.70;1.33;;;6.70;99.90;;;;;;4989625;28;20548;-60
2022/02/19 09:57:49;;;;;;;4.38;1.27;;;6.70;99.90;;;;;;4997973;28;20128;-60
2022/02/19 10:00:35;;;;;;;4.22;1.30;;;6.80;99.90;;;;;;4988189;28;20077;-60
2022/02/19 10:03:02;;;;;;;5.30;1.73;;;6.90;99.90;;;;;;4985013;28;20072;-60
2022/02/19 10:05:31;;;;;;;7.78;1.80;;;7.10;99.90;;;;;;4981408;28;20073;-60
2022/02/19 10:08:01;;;;;;;4.05;1.40;;;7.10;99.90;;;;;;4984260;28;20137;-61
2022/02/19 10:10:28;;;;;;;4.10;1.15;;;7.20;99.90;;;;;;4993655;28;20152;-60
2022/02/19 10:12:55;;;;;;;4.70;2.40;;;7.30;99.90;;;;;;4983675;28;20081;-61
2022/02/19 10:15:22;;;;;;;5.30;1.67;;;7.40;99.90;;;;;;4989415;28;20145;-61
2022/02/19 10:17:50;;;;;;;6.13;1.60;;;7.40;99.90;;;;;;4983588;28;20461;-61
2022/02/19 10:20:17;;;;;;;6.28;1.42;;;7.50;99.90;;;;;;4983648;28;20094;-60
2022/02/19 10:22:44;;;;;;;4.55;1.67;;;7.50;99.90;;;;;;4993276;28;20050;-61
2022/02/19 10:25:16;;;;;;;5.35;1.58;;;7.50;99.90;;;;;;4992945;28;20144;-61
2022/02/19 10:27:46;;;;;;;5.15;1.70;;;7.60;99.90;;;;;;4987072;28;20049;-60
2022/02/19 10:30:13;;;;;;;6.32;1.90;;;7.60;99.90;;;;;;4991437;28;20057;-60
2022/02/19 10:33:04;;;;;;;7.13;2.50;;;7.70;99.90;;;;;;5017621;28;20060;-59
2022/02/19 10:35:36;;;;;;;6.07;1.60;;;7.80;99.90;;;;;;4994379;28;20512;-60
2022/02/19 10:38:10;;;;;;;4.25;1.45;;;7.80;99.90;;;;;;5017636;28;20046;-59
2022/02/19 10:40:42;;;;;;;4.50;1.50;;;7.90;99.90;;;;;;5005565;28;20054;-59
2022/02/19 10:43:11;;;;;;;6.82;1.80;;;7.90;99.90;;;;;;4983969;28;20586;-60
2022/02/19 10:45:52;;;;;;;5.70;1.20;;;7.90;99.90;;;;;;4988107;28;20136;-60
2022/02/19 10:48:37;;;;;;;5.32;1.40;;;7.90;99.90;;;;;;4983090;28;20054;-59
2022/02/19 10:51:11;;;;;;;6.28;1.50;;;7.90;99.90;;;;;;4979701;28;20156;-60
2022/02/19 10:53:38;;;;;;;6.30;1.45;;;8.00;99.90;;;;;;4982444;28;20096;-61
2022/02/19 10:56:15;;;;;;;5.03;1.40;;;8.10;99.90;;;;;;4988236;28;20125;-60
2022/02/19 10:59:01;;;;;;;7.07;1.38;;;8.10;99.90;;;;;;4996523;28;20077;-60
2022/02/19 11:01:28;;;;;;;5.28;1.80;;;8.10;99.90;;;;;;4988516;28;20048;-61
2022/02/19 11:03:55;;;;;;;6.53;1.58;;;8.10;99.90;;;;;;5006319;28;20483;-62
2022/02/19 11:06:22;;;;;;;3.95;1.50;;;8.10;99.90;;;;;;4995235;28;20125;-59
2022/02/19 11:08:48;;;;;;;4.25;1.50;;;8.10;99.90;;;;;;4981248;28;20058;-59
2022/02/19 11:11:15;;;;;;;3.85;1.10;;;8.10;99.90;;;;;;4989451;28;20050;-59
2022/02/19 11:13:42;;;;;;;6.72;1.98;;;8.10;99.90;;;;;;4984388;28;20161;-59
2022/02/19 11:16:09;;;;;;;4.13;1.85;;;8.10;99.90;;;;;;4995971;28;20085;-59
2022/02/19 11:18:36;;;;;;;5.20;2.13;;;8.10;99.90;;;;;;4977381;28;20148;-62
2022/02/19 11:21:18;;;;;;;5.32;1.92;;;8.10;99.90;;;;;;4991831;28;20603;-60
2022/02/19 11:23:45;;;;;;;4.00;1.20;;;8.10;99.90;;;;;;4990064;28;20733;-59
2022/02/19 11:26:12;;;;;;;6.53;1.60;;;8.10;99.90;;;;;;4992324;28;20068;-60
2022/02/19 11:28:39;;;;;;;5.90;1.65;;;8.20;99.90;;;;;;4991765;28;20065;-60
2022/02/19 11:31:07;;;;;;;5.95;1.73;;;8.20;99.90;;;;;;5019702;28;20061;-60
2022/02/19 11:33:36;;;;;;;5.45;1.42;;;8.20;99.90;;;;;;4997028;28;20137;-59
2022/02/19 11:36:07;;;;;;;5.10;1.80;;;8.20;99.90;;;;;;5000110;28;20164;-60
2022/02/19 11:38:35;;;;;;;5.38;2.40;;;8.30;99.90;;;;;;4980828;28;20435;-59
2022/02/19 11:41:10;;;;;;;5.85;1.88;;;8.20;99.90;;;;;;4980471;28;20133;-60
2022/02/19 11:43:41;;;;;;;7.70;1.88;;;8.30;99.90;;;;;;4996919;28;20129;-59
2022/02/19 11:46:31;;;;;;;5.85;2.03;;;8.30;99.90;;;;;;4995081;28;20071;-60
2022/02/19 11:49:16;;;;;;;6.45;2.05;;;8.20;99.90;;;;;;4997872;28;20057;-60
2022/02/19 11:51:43;;;;;;;5.80;1.90;;;8.20;99.90;;;;;;4983078;28;20088;-59
2022/02/19 11:54:30;;;;;;;2.92;1.20;;;8.00;99.90;;;;;;4985157;28;20066;-60
2022/02/19 11:56:58;;;;;;;7.05;1.27;;;8.00;99.90;;;;;;4990664;28;20141;-61
2022/02/19 11:59:45;;;;;;;3.72;1.17;;;7.90;99.90;;;;;;5018756;28;20053;-59
2022/02/19 12:02:20;;;;;;;7.05;1.45;;;7.90;99.90;;;;;;5007878;28;20124;-59
2022/02/19 12:05:18;;;;;;;5.75;1.48;;;7.90;99.90;;;;;;4999347;28;20571;-59
2022/02/19 12:08:04;;;;;;;6.85;1.83;;;7.90;99.90;;;;;;5000338;28;20429;-59
2022/02/19 12:10:37;;;;;;;6.53;1.40;;;7.90;99.90;;;;;;4996853;28;20084;-60
2022/02/19 12:13:08;;;;;;;9.98;2.65;;;7.90;99.90;;;;;;4999557;28;20119;-59
2022/02/19 12:15:36;;;;;;;5.85;1.50;;;7.90;99.90;;;;;;4996816;28;20145;-60
2022/02/19 12:18:03;;;;;;;7.78;1.75;;;7.70;99.90;;;;;;4995784;28;20042;-60
2022/02/19 12:20:32;;;;;;;5.88;1.77;;;7.50;99.90;;;;;;4982400;28;20160;-60
2022/02/19 12:23:03;;;;;;;8.93;2.40;;;7.30;99.90;;;;;;4999072;28;20528;-60
2022/02/19 12:25:55;;;;;;;5.65;1.50;;;7.20;99.90;;;;;;4999864;28;20092;-59
2022/02/19 12:28:22;;;;;;;6.80;2.55;;;7.00;99.90;;;;;;4999069;28;20072;-59
2022/02/19 12:31:20;;;;;;;12.20;2.65;;;6.80;99.90;;;;;;4981243;28;20054;-60
2022/02/19 12:33:48;;;;;;;5.97;2.20;;;6.70;99.90;;;;;;5001642;28;20783;-61
2022/02/19 12:36:16;;;;;;;7.13;2.65;;;6.50;99.90;;;;;;4988733;28;20513;-60
2022/02/19 12:38:48;;;;;;;8.27;2.42;;;6.40;99.90;;;;;;5010733;28;20236;-60
2022/02/19 12:41:14;;;;;;;10.18;2.95;;;6.40;99.90;;;;;;5006735;28;20145;-61
2022/02/19 12:43:59;;;;;;;6.65;2.35;;;6.40;99.90;;;;;;4997112;28;20046;-60
2022/02/19 12:46:26;;;;;;;9.13;2.45;;;6.40;99.90;;;;;;5008154;28;20431;-61
2022/02/19 12:48:53;;;;;;;6.45;2.03;;;6.40;99.90;;;;;;5018030;28;20100;-61
2022/02/19 12:51:24;;;;;;;7.93;2.80;;;6.50;99.90;;;;;;5003115;28;20179;-61
2022/02/19 12:53:51;;;;;;;6.72;2.55;;;6.50;99.90;;;;;;4999905;28;20055;-60
2022/02/19 12:56:18;;;;;;;7.95;2.83;;;6.40;99.90;;;;;;4998103;28;20478;-60
2022/02/19 12:58:48;;;;;;;9.43;2.60;;;6.50;99.90;;;;;;4990356;28;20050;-60
2022/02/19 13:01:15;;;;;;;6.88;2.08;;;6.50;99.90;;;;;;5001820;28;20072;-61
2022/02/19 13:03:44;;;;;;;6.55;2.00;;;6.50;99.90;;;;;;5002024;28;20120;-62
2022/02/19 13:06:11;;;;;;;10.77;2.50;;;6.40;99.90;;;;;;5011091;28;20065;-61
2022/02/19 13:08:38;;;;;;;7.78;1.80;;;6.50;99.90;;;;;;4983665;28;20700;-60
2022/02/19 13:11:07;;;;;;;4.97;1.50;;;6.50;99.90;;;;;;4997606;28;20049;-60
2022/02/19 13:13:38;;;;;;;4.35;1.40;;;6.60;99.90;;;;;;4989630;28;20068;-60